sensor_id;sensor_type;location;lat;lon;timestamp;pressure;altitude;pressure_sealevel;temperature;humidity
41945;BME280;63122;52.424;13.458;2023-04-25T00:00:24;99924.56;;;8.05;100.00
41945;BME280;63122;52.424;13.458;2023-04-25T00:02:40;99933.41;;;8.04;100.00
41945;BME280;63122;52.424;13.458;2023-04-25T00:04:35;99929.47;;;8.00;100.00
41945;BME280;63122;52.424;13.458;2023-04-25T00:06:32;99944.72;;;7.96;100.00
41945;BME280;63122;52.424;13.458;2023-04-25T00:08:28;99935.78;;;7.89;100.00
41945;BME280;63122;52.424;13.458;2023-04-25T00:10:24;99948.22;;;7.87;100.00
41945;BME280;63122;52.424;13.458;2023-04-25T00:12:21;99949.81;;;7.80;100.00
41945;BME280;63122;52.424;13.458;2023-04-25T00:14:17;99929.94;;;7.77;100.00
41945;BME280;63122;52.424;13.458;2023-04-25T00:16:13;99932.16;;;7.90;100.00
41945;BME280;63122;52.424;13.458;2023-04-25T00:18:09;99941.03;;;7.89;100.00
41945;BME280;63122;52.424;13.458;2023-04-25T00:20:06;99929.03;;;7.86;100.00
41945;BME280;63122;52.424;13.458;2023-04-25T00:22:03;99930.22;;;7.92;100.00
41945;BME280;63122;52.424;13.458;2023-04-25T00:23:59;99931.66;;;7.86;100.00
41945;BME280;63122;52.424;13.458;2023-04-25T00:25:55;99936.75;;;7.88;100.00
41945;BME280;63122;52.424;13.458;2023-04-25T00:27:55;99933.97;;;7.89;100.00
41945;BME280;63122;52.424;13.458;2023-04-25T00:29:52;99936.63;;;7.89;100.00
41945;BME280;63122;52.424;13.458;2023-04-25T00:31:47;99932.09;;;7.82;100.00
41945;BME280;63122;52.424;13.458;2023-04-25T00:33:42;99939.84;;;7.83;100.00
41945;BME280;63122;52.424;13.458;2023-04-25T00:35:38;99944.41;;;7.81;100.00
41945;BME280;63122;52.424;13.458;2023-04-25T00:37:33;99935.72;;;7.81;100.00
41945;BME280;63122;52.424;13.458;2023-04-25T00:39:28;99934.75;;;7.82;100.00
41945;BME280;63122;52.424;13.458;2023-04-25T00:41:25;99939.16;;;7.81;100.00
41945;BME280;63122;52.424;13.458;2023-04-25T00:43:25;99939.00;;;7.83;100.00
41945;BME280;63122;52.424;13.458;2023-04-25T00:45:21;99928.38;;;7.84;100.00
41945;BME280;63122;52.424;13.458;2023-04-25T00:47:19;99928.50;;;7.83;100.00
41945;BME280;63122;52.424;13.458;2023-04-25T00:49:15;99923.00;;;7.94;100.00
41945;BME280;63122;52.424;13.458;2023-04-25T00:51:15;99935.56;;;7.82;100.00
41945;BME280;63122;52.424;13.458;2023-04-25T00:53:11;99931.97;;;7.83;100.00
41945;BME280;63122;52.424;13.458;2023-04-25T00:55:07;99929.47;;;7.82;100.00
41945;BME280;63122;52.424;13.458;2023-04-25T00:57:03;99936.16;;;7.76;100.00
41945;BME280;63122;52.424;13.458;2023-04-25T00:59:01;99928.81;;;7.80;100.00
41945;BME280;63122;52.424;13.458;2023-04-25T01:00:57;99925.44;;;7.87;100.00
41945;BME280;63122;52.424;13.458;2023-04-25T01:02:52;99925.75;;;7.84;100.00
41945;BME280;63122;52.424;13.458;2023-04-25T01:04:48;99933.31;;;7.87;100.00
41945;BME280;63122;52.424;13.458;2023-04-25T01:06:44;99917.47;;;7.79;100.00
41945;BME280;63122;52.424;13.458;2023-04-25T01:08:40;99920.31;;;7.86;100.00
41945;BME280;63122;52.424;13.458;2023-04-25T01:10:35;99915.59;;;7.89;100.00
41945;BME280;63122;52.424;13.458;2023-04-25T01:12:31;99919.56;;;7.93;100.00
41945;BME280;63122;52.424;13.458;2023-04-25T01:14:29;99914.75;;;7.89;100.00
41945;BME280;63122;52.424;13.458;2023-04-25T01:16:25;99914.75;;;7.89;100.00
41945;BME280;63122;52.424;13.458;2023-04-25T01:18:20;99911.31;;;7.88;100.00
41945;BME280;63122;52.424;13.458;2023-04-25T01:20:16;99913.28;;;7.86;100.00
41945;BME280;63122;52.424;13.458;2023-04-25T01:22:14;99919.34;;;7.87;100.00
41945;BME280;63122;52.424;13.458;2023-04-25T01:24:10;99911.78;;;7.84;100.00
41945;BME280;63122;52.424;13.458;2023-04-25T01:26:06;99907.19;;;7.86;100.00
41945;BME280;63122;52.424;13.458;2023-04-25T01:28:01;99913.13;;;7.88;100.00
41945;BME280;63122;52.424;13.458;2023-04-25T01:29:56;99912.44;;;7.86;100.00
41945;BME280;63122;52.424;13.458;2023-04-25T01:31:52;99914.41;;;7.84;100.00
41945;BME280;63122;52.424;13.458;2023-04-25T01:33:52;99916.72;;;7.87;100.00
41945;BME280;63122;52.424;13.458;2023-04-25T01:35:48;99932.94;;;7.82;100.00
41945;BME280;63122;52.424;13.458;2023-04-25T01:37:45;99918.44;;;7.78;100.00
41945;BME280;63122;52.424;13.458;2023-04-25T01:39:41;99915.69;;;7.80;100.00
41945;BME280;63122;52.424;13.458;2023-04-25T01:41:37;99919.97;;;7.81;100.00
41945;BME280;63122;52.424;13.458;2023-04-25T01:43:32;99921.38;;;7.75;100.00
41945;BME280;63122;52.424;13.458;2023-04-25T01:45:28;99915.47;;;7.73;100.00
41945;BME280;63122;52.424;13.458;2023-04-25T01:47:25;99907.44;;;7.74;100.00
41945;BME280;63122;52.424;13.458;2023-04-25T01:49:23;99908.25;;;7.75;100.00
41945;BME280;63122;52.424;13.458;2023-04-25T01:51:19;99906.28;;;7.77;100.00
41945;BME280;63122;52.424;13.458;2023-04-25T01:53:17;99919.91;;;7.72;100.00
41945;BME280;63122;52.424;13.458;2023-04-25T01:55:13;99922.91;;;7.59;100.00
41945;BME280;63122;52.424;13.458;2023-04-25T01:57:08;99922.28;;;7.66;100.00
41945;BME280;63122;52.424;13.458;2023-04-25T01:59:04;99930.63;;;7.61;100.00
41945;BME280;63122;52.424;13.458;2023-04-25T02:01:00;99926.50;;;7.58;100.00
41945;BME280;63122;52.424;13.458;2023-04-25T02:02:58;99934.69;;;7.55;100.00
41945;BME280;63122;52.424;13.458;2023-04-25T02:04:54;99911.72;;;7.57;100.00
41945;BME280;63122;52.424;13.458;2023-04-25T02:06:49;99917.47;;;7.61;100.00
41945;BME280;63122;52.424;13.458;2023-04-25T02:08:47;99921.31;;;7.67;100.00
41945;BME280;63122;52.424;13.458;2023-04-25T02:10:43;99920.72;;;7.55;100.00
41945;BME280;63122;52.424;13.458;2023-04-25T02:12:38;99922.81;;;7.51;100.00
41945;BME280;63122;52.424;13.458;2023-04-25T02:14:33;99922.53;;;7.54;100.00
41945;BME280;63122;52.424;13.458;2023-04-25T02:16:28;99922.13;;;7.49;100.00
41945;BME280;63122;52.424;13.458;2023-04-25T02:18:24;99922.13;;;7.49;100.00
41945;BME280;63122;52.424;13.458;2023-04-25T02:20:20;99919.91;;;7.54;100.00
41945;BME280;63122;52.424;13.458;2023-04-25T02:22:16;99926.50;;;7.58;100.00
41945;BME280;63122;52.424;13.458;2023-04-25T02:24:14;99919.00;;;7.63;100.00
41945;BME280;63122;52.424;13.458;2023-04-25T02:26:11;99922.72;;;7.61;100.00
41945;BME280;63122;52.424;13.458;2023-04-25T02:28:07;99921.31;;;7.48;100.00
41945;BME280;63122;52.424;13.458;2023-04-25T02:30:03;99923.94;;;7.48;100.00
41945;BME280;63122;52.424;13.458;2023-04-25T02:31:59;99915.78;;;7.52;100.00
41945;BME280;63122;52.424;13.458;2023-04-25T02:33:55;99921.16;;;7.50;100.00
41945;BME280;63122;52.424;13.458;2023-04-25T02:35:50;99913.69;;;7.55;100.00
41945;BME280;63122;52.424;13.458;2023-04-25T02:37:46;99919.97;;;7.44;100.00
41945;BME280;63122;52.424;13.458;2023-04-25T02:39:44;99911.72;;;7.57;100.00
41945;BME280;63122;52.424;13.458;2023-04-25T02:41:40;99921.16;;;7.50;100.00
41945;BME280;63122;52.424;13.458;2023-04-25T02:43:35;99916.44;;;7.54;100.00
41945;BME280;63122;52.424;13.458;2023-04-25T02:45:31;99910.22;;;7.55;100.00
41945;BME280;63122;52.424;13.458;2023-04-25T02:47:27;99915.53;;;7.45;100.00
41945;BME280;63122;52.424;13.458;2023-04-25T02:49:22;99914.06;;;7.42;100.00
41945;BME280;63122;52.424;13.458;2023-04-25T02:51:18;99918.03;;;7.46;100.00
41945;BME280;63122;52.424;13.458;2023-04-25T02:53:13;99911.44;;;7.42;100.00
41945;BME280;63122;52.424;13.458;2023-04-25T02:55:11;99918.47;;;7.42;100.00
41945;BME280;63122;52.424;13.458;2023-04-25T02:57:07;99908.63;;;7.44;100.00
41945;BME280;63122;52.424;13.458;2023-04-25T02:59:02;99909.19;;;7.47;100.00
41945;BME280;63122;52.424;13.458;2023-04-25T03:00:58;99913.75;;;7.45;100.00
41945;BME280;63122;52.424;13.458;2023-04-25T03:02:53;99912.78;;;7.46;100.00
41945;BME280;63122;52.424;13.458;2023-04-25T03:04:48;99910.66;;;7.50;100.00
41945;BME280;63122;52.424;13.458;2023-04-25T03:06:43;99912.25;;;7.43;100.00
41945;BME280;63122;52.424;13.458;2023-04-25T03:08:39;99915.47;;;7.37;100.00
41945;BME280;63122;52.424;13.458;2023-04-25T03:10:38;99915.09;;;7.31;100.00
41945;BME280;63122;52.424;13.458;2023-04-25T03:12:34;99911.19;;;7.35;100.00
41945;BME280;63122;52.424;13.458;2023-04-25T03:14:29;99914.63;;;7.36;100.00
41945;BME280;63122;52.424;13.458;2023-04-25T03:16:25;99911.31;;;7.34;100.00
41945;BME280;63122;52.424;13.458;2023-04-25T03:18:20;99906.47;;;7.39;100.00
41945;BME280;63122;52.424;13.458;2023-04-25T03:20:15;99919.81;;;7.46;100.00
41945;BME280;63122;52.424;13.458;2023-04-25T03:22:10;99910.59;;;7.42;100.00
41945;BME280;63122;52.424;13.458;2023-04-25T03:24:06;99908.81;;;7.42;100.00
41945;BME280;63122;52.424;13.458;2023-04-25T03:26:05;99912.97;;;7.35;100.00
41945;BME280;63122;52.424;13.458;2023-04-25T03:28:01;99912.69;;;7.38;100.00
41945;BME280;63122;52.424;13.458;2023-04-25T03:29:56;99902.34;;;7.37;100.00
41945;BME280;63122;52.424;13.458;2023-04-25T03:31:51;99916.56;;;7.34;100.00
41945;BME280;63122;52.424;13.458;2023-04-25T03:33:46;99909.63;;;7.43;100.00
41945;BME280;63122;52.424;13.458;2023-04-25T03:35:42;99916.22;;;7.47;100.00
41945;BME280;63122;52.424;13.458;2023-04-25T03:37:37;99917.78;;;7.40;100.00
41945;BME280;63122;52.424;13.458;2023-04-25T03:39:33;99915.31;;;7.38;100.00
41945;BME280;63122;52.424;13.458;2023-04-25T03:41:30;99919.00;;;7.45;100.00
41945;BME280;63122;52.424;13.458;2023-04-25T03:43:26;99919.13;;;7.44;100.00
41945;BME280;63122;52.424;13.458;2023-04-25T03:45:21;99913.81;;;7.54;100.00
41945;BME280;63122;52.424;13.458;2023-04-25T03:47:21;99911.56;;;7.41;100.00
41945;BME280;63122;52.424;13.458;2023-04-25T03:49:16;99914.72;;;7.44;100.00
41945;BME280;63122;52.424;13.458;2023-04-25T03:51:12;99916.00;;;7.58;100.00
41945;BME280;63122;52.424;13.458;2023-04-25T03:53:07;99921.16;;;7.50;100.00
41945;BME280;63122;52.424;13.458;2023-04-25T03:55:04;99927.25;;;7.51;100.00
41945;BME280;63122;52.424;13.458;2023-04-25T03:57:02;99914.66;;;7.54;100.00
41945;BME280;63122;52.424;13.458;2023-04-25T03:58:57;99932.50;;;7.51;100.00
41945;BME280;63122;52.424;13.458;2023-04-25T04:00:52;99934.69;;;7.55;100.00
41945;BME280;63122;52.424;13.458;2023-04-25T04:02:48;99934.50;;;7.57;100.00
41945;BME280;63122;52.424;13.458;2023-04-25T04:04:43;99928.81;;;7.61;100.00
41945;BME280;63122;52.424;13.458;2023-04-25T04:06:39;99929.72;;;7.52;100.00
41945;BME280;63122;52.424;13.458;2023-04-25T04:08:34;99942.25;;;7.58;100.00
41945;BME280;63122;52.424;13.458;2023-04-25T04:10:30;99941.84;;;7.53;100.00
41945;BME280;63122;52.424;13.458;2023-04-25T04:12:28;99928.72;;;7.53;100.00
41945;BME280;63122;52.424;13.458;2023-04-25T04:14:23;99937.88;;;7.49;100.00
41945;BME280;63122;52.424;13.458;2023-04-25T04:16:19;99939.63;;;7.58;100.00
41945;BME280;63122;52.424;13.458;2023-04-25T04:18:15;99947.34;;;7.60;100.00
41945;BME280;63122;52.424;13.458;2023-04-25T04:20:10;99947.19;;;7.61;100.00
41945;BME280;63122;52.424;13.458;2023-04-25T04:22:06;99940.81;;;7.46;100.00
41945;BME280;63122;52.424;13.458;2023-04-25T04:24:01;99940.50;;;7.49;100.00
41945;BME280;63122;52.424;13.458;2023-04-25T04:25:57;99946.22;;;7.44;100.00
41945;BME280;63122;52.424;13.458;2023-04-25T04:27:55;99939.69;;;7.48;100.00
41945;BME280;63122;52.424;13.458;2023-04-25T04:29:51;99943.19;;;7.39;100.00
41945;BME280;63122;52.424;13.458;2023-04-25T04:31:48;99941.03;;;7.34;100.00
41945;BME280;63122;52.424;13.458;2023-04-25T04:33:44;99953.00;;;7.37;100.00
41945;BME280;63122;52.424;13.458;2023-04-25T04:35:40;99957.88;;;7.32;100.00
41945;BME280;63122;52.424;13.458;2023-04-25T04:37:36;99948.06;;;7.34;100.00
41945;BME280;63122;52.424;13.458;2023-04-25T04:39:31;99950.69;;;7.34;100.00
41945;BME280;63122;52.424;13.458;2023-04-25T04:41:27;99951.78;;;7.41;100.00
41945;BME280;63122;52.424;13.458;2023-04-25T04:43:26;99952.63;;;7.32;100.00
41945;BME280;63122;52.424;13.458;2023-04-25T04:45:22;99942.97;;;7.32;100.00
41945;BME280;63122;52.424;13.458;2023-04-25T04:47:17;99947.69;;;7.29;100.00
41945;BME280;63122;52.424;13.458;2023-04-25T04:49:13;99950.19;;;7.30;100.00
41945;BME280;63122;52.424;13.458;2023-04-25T04:51:09;99947.94;;;7.35;100.00
41945;BME280;63122;52.424;13.458;2023-04-25T04:53:04;99957.28;;;7.38;100.00
41945;BME280;63122;52.424;13.458;2023-04-25T04:55:00;99951.91;;;7.40;100.00
41945;BME280;63122;52.424;13.458;2023-04-25T04:56:56;99960.22;;;7.35;100.00
41945;BME280;63122;52.424;13.458;2023-04-25T04:58:54;99958.44;;;7.35;100.00
41945;BME280;63122;52.424;13.458;2023-04-25T05:00:50;99957.28;;;7.38;100.00
41945;BME280;63122;52.424;13.458;2023-04-25T05:02:45;99965.63;;;7.33;100.00
41945;BME280;63122;52.424;13.458;2023-04-25T05:04:41;99963.97;;;7.32;100.00
41945;BME280;63122;52.424;13.458;2023-04-25T05:06:36;99956.09;;;7.32;100.00
41945;BME280;63122;52.424;13.458;2023-04-25T05:08:33;99956.31;;;7.39;100.00
41945;BME280;63122;52.424;13.458;2023-04-25T05:10:28;99964.19;;;7.39;100.00
41945;BME280;63122;52.424;13.458;2023-04-25T05:12:23;99954.81;;;7.37;100.00
41945;BME280;63122;52.424;13.458;2023-04-25T05:14:21;99970.19;;;7.31;100.00
41945;BME280;63122;52.424;13.458;2023-04-25T05:16:17;99963.38;;;7.39;100.00
41945;BME280;63122;52.424;13.458;2023-04-25T05:18:12;99969.84;;;7.44;100.00
41945;BME280;63122;52.424;13.458;2023-04-25T05:20:08;99971.19;;;7.48;100.00
41945;BME280;63122;52.424;13.458;2023-04-25T05:22:04;99974.50;;;7.51;100.00
41945;BME280;63122;52.424;13.458;2023-04-25T05:23:59;99971.63;;;7.44;100.00
41945;BME280;63122;52.424;13.458;2023-04-25T05:25:54;99972.47;;;7.44;100.00
41945;BME280;63122;52.424;13.458;2023-04-25T05:27:50;99968.19;;;7.43;100.00
41945;BME280;63122;52.424;13.458;2023-04-25T05:29:48;99975.66;;;7.38;100.00
41945;BME280;63122;52.424;13.458;2023-04-25T05:31:44;99973.28;;;7.45;100.00
41945;BME280;63122;52.424;13.458;2023-04-25T05:33:40;99974.00;;;7.37;100.00
41945;BME280;63122;52.424;13.458;2023-04-25T05:35:35;99979.00;;;7.40;100.00
41945;BME280;63122;52.424;13.458;2023-04-25T05:37:30;99973.22;;;7.55;100.00
41945;BME280;63122;52.424;13.458;2023-04-25T05:39:26;99968.34;;;7.60;100.00
41945;BME280;63122;52.424;13.458;2023-04-25T05:41:21;99976.28;;;7.50;100.00
41945;BME280;63122;52.424;13.458;2023-04-25T05:43:17;99970.81;;;7.43;100.00
41945;BME280;63122;52.424;13.458;2023-04-25T05:45:16;99980.84;;;7.48;100.00
41945;BME280;63122;52.424;13.458;2023-04-25T05:47:12;99988.50;;;7.41;100.00
41945;BME280;63122;52.424;13.458;2023-04-25T05:49:07;99987.81;;;7.39;100.00
41945;BME280;63122;52.424;13.458;2023-04-25T05:51:02;99992.09;;;7.40;100.00
41945;BME280;63122;52.424;13.458;2023-04-25T05:52:58;99988.28;;;7.53;100.00
41945;BME280;63122;52.424;13.458;2023-04-25T05:54:53;99984.25;;;7.58;100.00
41945;BME280;63122;52.424;13.458;2023-04-25T05:56:48;99998.84;;;7.43;100.00
41945;BME280;63122;52.424;13.458;2023-04-25T05:58:44;99987.91;;;7.47;100.00
41945;BME280;63122;52.424;13.458;2023-04-25T06:00:41;99995.72;;;7.57;100.00
41945;BME280;63122;52.424;13.458;2023-04-25T06:02:37;99995.88;;;7.56;100.00
41945;BME280;63122;52.424;13.458;2023-04-25T06:04:32;99991.53;;;7.64;100.00
41945;BME280;63122;52.424;13.458;2023-04-25T06:06:28;99998.66;;;7.72;100.00
41945;BME280;63122;52.424;13.458;2023-04-25T06:08:23;100011.19;;;7.60;100.00
41945;BME280;63122;52.424;13.458;2023-04-25T06:10:19;99999.84;;;7.60;100.00
41945;BME280;63122;52.424;13.458;2023-04-25T06:12:14;99997.06;;;7.61;100.00
41945;BME280;63122;52.424;13.458;2023-04-25T06:14:10;100001.88;;;7.66;100.00
41945;BME280;63122;52.424;13.458;2023-04-25T06:16:07;100008.63;;;7.69;100.00
41945;BME280;63122;52.424;13.458;2023-04-25T06:18:03;100004.94;;;7.61;100.00
41945;BME280;63122;52.424;13.458;2023-04-25T06:19:58;100002.63;;;7.58;100.00
41945;BME280;63122;52.424;13.458;2023-04-25T06:21:56;100002.03;;;7.64;100.00
41945;BME280;63122;52.424;13.458;2023-04-25T06:23:52;100007.09;;;7.66;100.00
41945;BME280;63122;52.424;13.458;2023-04-25T06:25:47;99999.94;;;7.68;100.00
41945;BME280;63122;52.424;13.458;2023-04-25T06:27:42;100009.69;;;7.76;100.00
41945;BME280;63122;52.424;13.458;2023-04-25T06:29:37;100008.63;;;7.69;100.00
41945;BME280;63122;52.424;13.458;2023-04-25T06:31:35;100001.97;;;7.74;100.00
41945;BME280;63122;52.424;13.458;2023-04-25T06:33:30;100001.22;;;7.82;100.00
41945;BME280;63122;52.424;13.458;2023-04-25T06:35:25;100007.06;;;7.76;100.00
41945;BME280;63122;52.424;13.458;2023-04-25T06:37:21;100012.84;;;7.80;100.00
41945;BME280;63122;52.424;13.458;2023-04-25T06:39:16;100016.06;;;7.73;100.00
41945;BME280;63122;52.424;13.458;2023-04-25T06:41:12;100013.19;;;7.67;100.00
41945;BME280;63122;52.424;13.458;2023-04-25T06:43:07;100015.22;;;7.73;100.00
41945;BME280;63122;52.424;13.458;2023-04-25T06:45:03;100010.22;;;7.80;100.00
41945;BME280;63122;52.424;13.458;2023-04-25T06:47:01;100006.97;;;7.86;100.00
41945;BME280;63122;52.424;13.458;2023-04-25T06:48:57;100012.22;;;7.86;100.00
41945;BME280;63122;52.424;13.458;2023-04-25T06:50:52;100013.38;;;7.83;100.00
41945;BME280;63122;52.424;13.458;2023-04-25T06:52:48;100013.38;;;7.83;100.00
41945;BME280;63122;52.424;13.458;2023-04-25T06:54:43;100014.41;;;7.90;100.00
41945;BME280;63122;52.424;13.458;2023-04-25T06:56:39;100013.88;;;7.87;100.00
41945;BME280;63122;52.424;13.458;2023-04-25T06:58:34;100006.47;;;7.82;100.00
41945;BME280;63122;52.424;13.458;2023-04-25T07:00:29;100017.56;;;7.76;100.00
41945;BME280;63122;52.424;13.458;2023-04-25T07:02:28;100010.44;;;7.68;100.00
41945;BME280;63122;52.424;13.458;2023-04-25T07:04:23;100008.09;;;7.65;100.00
41945;BME280;63122;52.424;13.458;2023-04-25T07:06:19;100015.69;;;7.68;100.00
41945;BME280;63122;52.424;13.458;2023-04-25T07:08:14;100016.06;;;7.73;100.00
41945;BME280;63122;52.424;13.458;2023-04-25T07:10:09;100020.34;;;7.74;100.00
41945;BME280;63122;52.424;13.458;2023-04-25T07:12:05;100015.75;;;7.76;100.00
41945;BME280;63122;52.424;13.458;2023-04-25T07:14:00;100026.94;;;7.78;100.00
41945;BME280;63122;52.424;13.458;2023-04-25T07:15:56;100021.38;;;7.82;100.00
41945;BME280;63122;52.424;13.458;2023-04-25T07:17:54;100022.44;;;7.89;100.00
41945;BME280;63122;52.424;13.458;2023-04-25T07:19:49;100027.09;;;7.95;100.00
41945;BME280;63122;52.424;13.458;2023-04-25T07:21:44;100032.63;;;7.92;100.00
41945;BME280;63122;52.424;13.458;2023-04-25T07:23:39;100048.69;;;7.89;100.00
41945;BME280;63122;52.424;13.458;2023-04-25T07:25:35;100045.59;;;7.57;100.00
41945;BME280;63122;52.424;13.458;2023-04-25T07:27:30;100048.84;;;7.69;100.00
41945;BME280;63122;52.424;13.458;2023-04-25T07:29:25;100047.47;;;7.65;100.00
41945;BME280;63122;52.424;13.458;2023-04-25T07:31:22;100049.81;;;7.68;100.00
41945;BME280;63122;52.424;13.458;2023-04-25T07:33:20;100054.16;;;7.59;100.00
41945;BME280;63122;52.424;13.458;2023-04-25T07:35:16;100052.09;;;7.53;100.00
41945;BME280;63122;52.424;13.458;2023-04-25T07:37:11;100065.72;;;7.67;100.00
41945;BME280;63122;52.424;13.458;2023-04-25T07:39:06;100061.25;;;7.67;100.00
41945;BME280;63122;52.424;13.458;2023-04-25T07:41:02;100064.88;;;7.66;100.00
41945;BME280;63122;52.424;13.458;2023-04-25T07:42:58;100061.81;;;7.71;100.00
41945;BME280;63122;52.424;13.458;2023-04-25T07:44:53;100067.84;;;7.53;100.00
41945;BME280;63122;52.424;13.458;2023-04-25T07:46:48;100071.72;;;7.49;100.00
41945;BME280;63122;52.424;13.458;2023-04-25T07:48:46;100071.06;;;7.47;100.00
41945;BME280;63122;52.424;13.458;2023-04-25T07:50:42;100084.31;;;7.55;100.00
41945;BME280;63122;52.424;13.458;2023-04-25T07:52:37;100082.72;;;7.62;100.00
41945;BME280;63122;52.424;13.458;2023-04-25T07:54:32;100071.25;;;7.63;100.00
41945;BME280;63122;52.424;13.458;2023-04-25T07:56:27;100077.63;;;7.61;100.00
41945;BME280;63122;52.424;13.458;2023-04-25T07:58:43;100082.91;;;7.51;100.00
41945;BME280;63122;52.424;13.458;2023-04-25T08:00:38;100076.81;;;7.60;100.00
41945;BME280;63122;52.424;13.458;2023-04-25T08:02:34;100082.44;;;7.66;100.00
41945;BME280;63122;52.424;13.458;2023-04-25T08:04:31;100084.34;;;7.73;100.00
41945;BME280;63122;52.424;13.458;2023-04-25T08:06:27;100077.13;;;7.75;100.00
41945;BME280;63122;52.424;13.458;2023-04-25T08:08:24;100093.63;;;7.68;100.00
41945;BME280;63122;52.424;13.458;2023-04-25T08:10:19;100093.28;;;7.53;100.00
41945;BME280;63122;52.424;13.458;2023-04-25T08:12:15;100084.75;;;7.41;100.00
41945;BME280;63122;52.424;13.458;2023-04-25T08:14:11;100091.66;;;7.42;100.00
41945;BME280;63122;52.424;13.458;2023-04-25T08:16:07;100087.34;;;7.51;100.00
41945;BME280;63122;52.424;13.458;2023-04-25T08:18:02;100093.88;;;7.46;100.00
41945;BME280;63122;52.424;13.458;2023-04-25T08:20:00;100101.53;;;7.58;100.00
41945;BME280;63122;52.424;13.458;2023-04-25T08:21:57;100099.16;;;7.64;100.00
41945;BME280;63122;52.424;13.458;2023-04-25T08:23:52;100103.16;;;7.69;100.00
41945;BME280;63122;52.424;13.458;2023-04-25T08:25:48;100100.25;;;7.90;100.00
41945;BME280;63122;52.424;13.458;2023-04-25T08:27:43;100106.84;;;7.94;100.00
41945;BME280;63122;52.424;13.458;2023-04-25T08:29:38;100108.75;;;8.02;100.00
41945;BME280;63122;52.424;13.458;2023-04-25T08:31:33;100113.56;;;8.06;100.00
41945;BME280;63122;52.424;13.458;2023-04-25T08:33:29;100112.28;;;8.11;100.00
41945;BME280;63122;52.424;13.458;2023-04-25T08:35:27;100119.44;;;8.18;100.00
41945;BME280;63122;52.424;13.458;2023-04-25T08:37:22;100113.03;;;8.21;100.00
41945;BME280;63122;52.424;13.458;2023-04-25T08:39:17;100122.72;;;8.39;100.00
41945;BME280;63122;52.424;13.458;2023-04-25T08:41:13;100110.63;;;8.46;100.00
41945;BME280;63122;52.424;13.458;2023-04-25T08:43:13;100114.47;;;8.33;100.00
41945;BME280;63122;52.424;13.458;2023-04-25T08:45:10;100124.00;;;8.34;100.00
41945;BME280;63122;52.424;13.458;2023-04-25T08:47:05;100122.88;;;8.37;100.00
41945;BME280;63122;52.424;13.458;2023-04-25T08:49:01;100125.72;;;8.44;100.00
41945;BME280;63122;52.424;13.458;2023-04-25T08:51:01;100121.31;;;8.44;100.00
41945;BME280;63122;52.424;13.458;2023-04-25T08:52:59;100125.84;;;8.52;100.00
41945;BME280;63122;52.424;13.458;2023-04-25T08:55:01;100131.31;;;8.59;100.00
41945;BME280;63122;52.424;13.458;2023-04-25T08:56:58;100138.16;;;8.52;100.00
41945;BME280;63122;52.424;13.458;2023-04-25T08:58:56;100138.06;;;8.43;100.00
41945;BME280;63122;52.424;13.458;2023-04-25T09:00:53;100126.66;;;8.34;100.00
41945;BME280;63122;52.424;13.458;2023-04-25T09:02:49;100135.06;;;8.38;100.00
41945;BME280;63122;52.424;13.458;2023-04-25T09:04:45;100141.97;;;8.39;100.00
41945;BME280;63122;52.424;13.458;2023-04-25T09:06:44;100144.88;;;8.36;100.00
41945;BME280;63122;52.424;13.458;2023-04-25T09:08:39;100141.66;;;8.42;100.00
41945;BME280;63122;52.424;13.458;2023-04-25T09:10:35;100154.19;;;8.48;100.00
41945;BME280;63122;52.424;13.458;2023-04-25T09:12:30;100150.06;;;8.46;96.86
41945;BME280;63122;52.424;13.458;2023-04-25T09:14:26;100155.13;;;8.39;96.80
41945;BME280;63122;52.424;13.458;2023-04-25T09:16:21;100149.50;;;8.52;94.86
41945;BME280;63122;52.424;13.458;2023-04-25T09:18:32;100158.50;;;8.49;91.84
41945;BME280;63122;52.424;13.458;2023-04-25T09:20:28;100153.63;;;8.55;90.41
41945;BME280;63122;52.424;13.458;2023-04-25T09:22:29;100158.66;;;8.66;89.20
41945;BME280;63122;52.424;13.458;2023-04-25T09:24:35;100162.53;;;8.98;86.48
41945;BME280;63122;52.424;13.458;2023-04-25T09:26:31;100159.84;;;9.16;84.98
41945;BME280;63122;52.424;13.458;2023-04-25T09:28:27;100168.81;;;9.32;80.15
41945;BME280;63122;52.424;13.458;2023-04-25T09:30:29;100168.00;;;9.31;76.45
41945;BME280;63122;52.424;13.458;2023-04-25T09:32:25;100174.66;;;9.17;76.74
41945;BME280;63122;52.424;13.458;2023-04-25T09:34:21;100160.31;;;9.12;77.47
41945;BME280;63122;52.424;13.458;2023-04-25T09:36:16;100171.94;;;9.27;76.32
41945;BME280;63122;52.424;13.458;2023-04-25T09:38:18;100172.53;;;9.47;77.80
41945;BME280;63122;52.424;13.458;2023-04-25T09:40:13;100181.97;;;9.58;78.35
41945;BME280;63122;52.424;13.458;2023-04-25T09:42:09;100176.22;;;9.63;74.70
41945;BME280;63122;52.424;13.458;2023-04-25T09:44:04;100176.75;;;9.75;76.15
41945;BME280;63122;52.424;13.458;2023-04-25T09:46:00;100178.56;;;9.66;72.52
41945;BME280;63122;52.424;13.458;2023-04-25T09:47:55;100173.97;;;9.68;74.78
41945;BME280;63122;52.424;13.458;2023-04-25T09:49:52;100181.75;;;9.78;74.91
41945;BME280;63122;52.424;13.458;2023-04-25T09:51:54;100184.84;;;9.73;72.78
41945;BME280;63122;52.424;13.458;2023-04-25T09:53:54;100168.31;;;9.63;75.06
41945;BME280;63122;52.424;13.458;2023-04-25T09:55:50;100170.09;;;9.54;76.90
41945;BME280;63122;52.424;13.458;2023-04-25T09:58:04;100173.59;;;9.63;77.24
41945;BME280;63122;52.424;13.458;2023-04-25T10:00:14;100185.19;;;9.44;75.08
41945;BME280;63122;52.424;13.458;2023-04-25T10:02:10;100184.50;;;9.68;75.82
41945;BME280;63122;52.424;13.458;2023-04-25T10:04:09;100157.72;;;9.46;74.67
41945;BME280;63122;52.424;13.458;2023-04-25T10:06:07;100181.22;;;9.40;75.57